sensor_id;sensor_type;location;lat;lon;timestamp;noise_LAeq;noise_LA_min;noise_LA_max;noise_LA01;noise_LA95
77135;Laerm;48586;50.122;18.972;2023-05-07T00:00:50;42.56;33.91;54.79;;
77135;Laerm;48586;50.122;18.972;2023-05-07T00:02:55;40.00;33.98;52.87;;
77135;Laerm;48586;50.122;18.972;2023-05-07T00:05:01;39.83;33.85;49.53;;
77135;Laerm;48586;50.122;18.972;2023-05-07T00:07:08;41.74;33.93;54.11;;
77135;Laerm;48586;50.122;18.972;2023-05-07T00:09:18;35.62;33.52;53.27;;
77135;Laerm;48586;50.122;18.972;2023-05-07T00:11:23;34.92;33.48;40.20;;
77135;Laerm;48586;50.122;18.972;2023-05-07T00:13:28;43.02;33.71;57.60;;
77135;Laerm;48586;50.122;18.972;2023-05-07T00:15:39;39.64;33.91;52.04;;
77135;Laerm;48586;50.122;18.972;2023-05-07T00:17:45;39.01;33.75;55.64;;
77135;Laerm;48586;50.122;18.972;2023-05-07T00:19:49;35.96;33.93;48.39;;
77135;Laerm;48586;50.122;18.972;2023-05-07T00:21:53;35.47;33.86;52.00;;
77135;Laerm;48586;50.122;18.972;2023-05-07T00:23:59;39.00;33.83;51.28;;
77135;Laerm;48586;50.122;18.972;2023-05-07T00:26:06;37.70;33.60;48.26;;
77135;Laerm;48586;50.122;18.972;2023-05-07T00:28:11;39.30;33.91;47.84;;
77135;Laerm;48586;50.122;18.972;2023-05-07T00:30:17;37.91;34.00;49.98;;
77135;Laerm;48586;50.122;18.972;2023-05-07T00:32:22;35.72;33.50;50.50;;
77135;Laerm;48586;50.122;18.972;2023-05-07T00:34:27;42.67;34.16;55.98;;
77135;Laerm;48586;50.122;18.972;2023-05-07T00:36:32;35.61;33.88;44.26;;
77135;Laerm;48586;50.122;18.972;2023-05-07T00:38:37;35.77;33.77;52.98;;
77135;Laerm;48586;50.122;18.972;2023-05-07T00:40:42;35.67;33.68;45.75;;
77135;Laerm;48586;50.122;18.972;2023-05-07T00:42:50;38.27;34.08;48.12;;
77135;Laerm;48586;50.122;18.972;2023-05-07T00:44:59;36.76;33.99;44.01;;
77135;Laerm;48586;50.122;18.972;2023-05-07T00:47:06;42.78;33.68;55.79;;
77135;Laerm;48586;50.122;18.972;2023-05-07T00:49:12;40.01;33.80;52.03;;
77135;Laerm;48586;50.122;18.972;2023-05-07T00:51:17;43.56;33.83;56.03;;
77135;Laerm;48586;50.122;18.972;2023-05-07T00:53:23;35.24;33.67;42.25;;
77135;Laerm;48586;50.122;18.972;2023-05-07T00:55:30;35.13;33.97;38.87;;
77135;Laerm;48586;50.122;18.972;2023-05-07T00:57:37;39.04;33.84;49.56;;
77135;Laerm;48586;50.122;18.972;2023-05-07T00:59:46;35.29;33.77;47.63;;
77135;Laerm;48586;50.122;18.972;2023-05-07T01:01:52;41.64;34.28;55.29;;
77135;Laerm;48586;50.122;18.972;2023-05-07T01:03:58;37.14;34.23;48.20;;
77135;Laerm;48586;50.122;18.972;2023-05-07T01:06:07;50.45;35.41;64.40;;
77135;Laerm;48586;50.122;18.972;2023-05-07T01:08:17;44.83;35.20;57.33;;
77135;Laerm;48586;50.122;18.972;2023-05-07T01:10:24;41.41;33.86;53.29;;
77135;Laerm;48586;50.122;18.972;2023-05-07T01:12:34;35.40;34.01;38.81;;
77135;Laerm;48586;50.122;18.972;2023-05-07T01:14:40;41.65;33.70;53.46;;
77135;Laerm;48586;50.122;18.972;2023-05-07T01:16:48;42.57;34.11;56.00;;
77135;Laerm;48586;50.122;18.972;2023-05-07T01:18:56;39.19;33.94;49.32;;
77135;Laerm;48586;50.122;18.972;2023-05-07T01:21:06;38.17;33.79;47.40;;
77135;Laerm;48586;50.122;18.972;2023-05-07T01:23:15;35.41;33.90;41.77;;
77135;Laerm;48586;50.122;18.972;2023-05-07T01:25:22;35.33;33.69;41.73;;
77135;Laerm;48586;50.122;18.972;2023-05-07T01:27:31;36.30;33.79;45.50;;
77135;Laerm;48586;50.122;18.972;2023-05-07T01:29:37;35.38;33.68;39.52;;
77135;Laerm;48586;50.122;18.972;2023-05-07T01:31:45;35.81;33.91;42.61;;
77135;Laerm;48586;50.122;18.972;2023-05-07T01:33:53;35.60;33.82;43.87;;
77135;Laerm;48586;50.122;18.972;2023-05-07T01:36:01;35.71;33.77;42.61;;
77135;Laerm;48586;50.122;18.972;2023-05-07T01:38:09;35.98;34.00;47.37;;
77135;Laerm;48586;50.122;18.972;2023-05-07T01:40:18;35.60;33.95;42.83;;
77135;Laerm;48586;50.122;18.972;2023-05-07T01:42:24;36.04;33.92;44.73;;
77135;Laerm;48586;50.122;18.972;2023-05-07T01:44:30;43.01;33.92;60.90;;
77135;Laerm;48586;50.122;18.972;2023-05-07T01:46:35;40.87;33.81;52.81;;
77135;Laerm;48586;50.122;18.972;2023-05-07T01:48:42;36.07;33.70;45.30;;
77135;Laerm;48586;50.122;18.972;2023-05-07T01:50:48;35.58;33.66;44.10;;
77135;Laerm;48586;50.122;18.972;2023-05-07T01:52:53;35.27;33.63;42.60;;
77135;Laerm;48586;50.122;18.972;2023-05-07T01:54:59;35.48;33.75;39.09;;
77135;Laerm;48586;50.122;18.972;2023-05-07T01:57:06;39.15;33.63;49.73;;
77135;Laerm;48586;50.122;18.972;2023-05-07T01:59:11;41.34;33.99;54.43;;
77135;Laerm;48586;50.122;18.972;2023-05-07T02:01:17;40.32;33.97;53.15;;
77135;Laerm;48586;50.122;18.972;2023-05-07T02:03:23;36.23;33.76;42.25;;
77135;Laerm;48586;50.122;18.972;2023-05-07T02:05:40;35.40;33.79;42.94;;
77135;Laerm;48586;50.122;18.972;2023-05-07T02:07:55;39.59;33.87;49.57;;
77135;Laerm;48586;50.122;18.972;2023-05-07T02:10:04;40.86;33.77;54.09;;
77135;Laerm;48586;50.122;18.972;2023-05-07T02:12:11;36.44;34.10;46.19;;
77135;Laerm;48586;50.122;18.972;2023-05-07T02:14:17;41.54;34.66;54.93;;
77135;Laerm;48586;50.122;18.972;2023-05-07T02:16:23;40.05;34.71;49.45;;
77135;Laerm;48586;50.122;18.972;2023-05-07T02:18:27;41.36;34.26;50.34;;
77135;Laerm;48586;50.122;18.972;2023-05-07T02:20:35;35.93;34.05;45.51;;
77135;Laerm;48586;50.122;18.972;2023-05-07T02:22:39;37.80;34.01;47.15;;
77135;Laerm;48586;50.122;18.972;2023-05-07T02:24:45;40.56;34.08;51.88;;
77135;Laerm;48586;50.122;18.972;2023-05-07T02:26:50;36.42;33.87;46.42;;
77135;Laerm;48586;50.122;18.972;2023-05-07T02:28:58;38.75;33.91;52.83;;
77135;Laerm;48586;50.122;18.972;2023-05-07T02:31:03;38.63;33.98;52.42;;
77135;Laerm;48586;50.122;18.972;2023-05-07T02:33:10;35.80;33.79;45.52;;
77135;Laerm;48586;50.122;18.972;2023-05-07T02:35:16;36.12;34.18;46.53;;
77135;Laerm;48586;50.122;18.972;2023-05-07T02:37:22;35.98;34.14;43.53;;
77135;Laerm;48586;50.122;18.972;2023-05-07T02:39:27;35.89;33.95;47.97;;
77135;Laerm;48586;50.122;18.972;2023-05-07T02:41:33;36.14;33.83;43.71;;
77135;Laerm;48586;50.122;18.972;2023-05-07T02:43:38;36.87;34.08;44.13;;
77135;Laerm;48586;50.122;18.972;2023-05-07T02:45:46;36.14;34.26;50.93;;
77135;Laerm;48586;50.122;18.972;2023-05-07T02:47:53;41.07;33.87;52.53;;
77135;Laerm;48586;50.122;18.972;2023-05-07T02:49:58;36.61;33.79;44.43;;
77135;Laerm;48586;50.122;18.972;2023-05-07T02:52:04;37.94;34.26;49.20;;
77135;Laerm;48586;50.122;18.972;2023-05-07T02:54:09;43.11;33.63;55.74;;
77135;Laerm;48586;50.122;18.972;2023-05-07T02:56:14;42.64;34.18;55.56;;
77135;Laerm;48586;50.122;18.972;2023-05-07T02:58:20;36.10;34.08;48.19;;
77135;Laerm;48586;50.122;18.972;2023-05-07T03:00:25;39.21;34.05;59.91;;
77135;Laerm;48586;50.122;18.972;2023-05-07T03:02:54;44.95;33.85;64.09;;
77135;Laerm;48586;50.122;18.972;2023-05-07T03:05:00;41.51;34.09;61.00;;
77135;Laerm;48586;50.122;18.972;2023-05-07T03:07:04;45.86;34.27;60.93;;
77135;Laerm;48586;50.122;18.972;2023-05-07T03:09:10;36.66;34.22;49.26;;
77135;Laerm;48586;50.122;18.972;2023-05-07T03:11:15;40.62;34.32;50.88;;
77135;Laerm;48586;50.122;18.972;2023-05-07T03:13:20;44.46;34.74;54.16;;
77135;Laerm;48586;50.122;18.972;2023-05-07T03:15:25;46.97;34.35;65.87;;
77135;Laerm;48586;50.122;18.972;2023-05-07T03:17:31;43.17;34.13;63.63;;
77135;Laerm;48586;50.122;18.972;2023-05-07T03:19:39;40.81;34.49;59.31;;
77135;Laerm;48586;50.122;18.972;2023-05-07T03:21:44;43.91;34.26;61.16;;
77135;Laerm;48586;50.122;18.972;2023-05-07T03:23:49;37.05;34.32;46.23;;
77135;Laerm;48586;50.122;18.972;2023-05-07T03:25:54;40.49;34.36;53.38;;
77135;Laerm;48586;50.122;18.972;2023-05-07T03:28:00;42.82;34.32;54.13;;
77135;Laerm;48586;50.122;18.972;2023-05-07T03:30:22;43.79;34.25;59.32;;
77135;Laerm;48586;50.122;18.972;2023-05-07T03:32:27;42.67;34.90;52.67;;
77135;Laerm;48586;50.122;18.972;2023-05-07T03:34:32;46.41;34.21;59.75;;
77135;Laerm;48586;50.122;18.972;2023-05-07T03:36:40;40.77;34.28;53.72;;
77135;Laerm;48586;50.122;18.972;2023-05-07T03:38:49;36.36;34.01;46.14;;
77135;Laerm;48586;50.122;18.972;2023-05-07T03:40:58;38.05;34.34;47.27;;
77135;Laerm;48586;50.122;18.972;2023-05-07T03:43:04;42.14;34.49;55.61;;
77135;Laerm;48586;50.122;18.972;2023-05-07T03:45:11;41.99;34.49;52.54;;
77135;Laerm;48586;50.122;18.972;2023-05-07T03:47:20;48.89;34.95;66.47;;
77135;Laerm;48586;50.122;18.972;2023-05-07T03:49:24;42.57;34.54;54.02;;
77135;Laerm;48586;50.122;18.972;2023-05-07T03:51:30;35.95;33.82;42.04;;
77135;Laerm;48586;50.122;18.972;2023-05-07T03:53:38;36.06;34.11;42.67;;
77135;Laerm;48586;50.122;18.972;2023-05-07T03:55:43;36.85;34.13;45.42;;
77135;Laerm;48586;50.122;18.972;2023-05-07T03:57:48;37.33;33.99;49.44;;
77135;Laerm;48586;50.122;18.972;2023-05-07T03:59:55;44.35;33.96;56.34;;
77135;Laerm;48586;50.122;18.972;2023-05-07T04:02:00;42.05;34.60;54.46;;
77135;Laerm;48586;50.122;18.972;2023-05-07T04:04:06;36.28;33.98;44.06;;
77135;Laerm;48586;50.122;18.972;2023-05-07T04:06:11;40.55;34.06;53.58;;
77135;Laerm;48586;50.122;18.972;2023-05-07T04:08:19;42.33;33.89;54.22;;
77135;Laerm;48586;50.122;18.972;2023-05-07T04:10:30;40.03;34.52;53.02;;
77135;Laerm;48586;50.122;18.972;2023-05-07T04:12:38;43.80;34.06;57.00;;
77135;Laerm;48586;50.122;18.972;2023-05-07T04:14:45;41.79;34.36;55.08;;
77135;Laerm;48586;50.122;18.972;2023-05-07T04:16:49;42.30;34.42;54.71;;
77135;Laerm;48586;50.122;18.972;2023-05-07T04:18:55;42.75;34.23;54.79;;
77135;Laerm;48586;50.122;18.972;2023-05-07T04:20:59;42.60;34.26;56.11;;
77135;Laerm;48586;50.122;18.972;2023-05-07T04:23:04;40.51;34.41;52.98;;
77135;Laerm;48586;50.122;18.972;2023-05-07T04:25:09;35.75;33.98;50.19;;
77135;Laerm;48586;50.122;18.972;2023-05-07T04:27:17;41.10;34.03;52.70;;
77135;Laerm;48586;50.122;18.972;2023-05-07T04:29:21;36.17;34.15;46.19;;
77135;Laerm;48586;50.122;18.972;2023-05-07T04:31:25;37.31;34.24;46.10;;
77135;Laerm;48586;50.122;18.972;2023-05-07T04:33:31;43.02;34.55;53.74;;
77135;Laerm;48586;50.122;18.972;2023-05-07T04:35:36;36.03;33.96;53.32;;
77135;Laerm;48586;50.122;18.972;2023-05-07T04:37:41;38.94;34.34;48.54;;
77135;Laerm;48586;50.122;18.972;2023-05-07T04:39:46;35.61;33.91;40.78;;
77135;Laerm;48586;50.122;18.972;2023-05-07T04:41:50;41.20;34.79;53.31;;
77135;Laerm;48586;50.122;18.972;2023-05-07T04:43:58;43.23;34.37;52.48;;
77135;Laerm;48586;50.122;18.972;2023-05-07T04:46:08;35.97;34.24;43.81;;
77135;Laerm;48586;50.122;18.972;2023-05-07T04:48:12;35.94;34.04;41.86;;
77135;Laerm;48586;50.122;18.972;2023-05-07T04:50:16;35.57;33.82;41.18;;
77135;Laerm;48586;50.122;18.972;2023-05-07T04:52:23;39.93;34.22;52.10;;
77135;Laerm;48586;50.122;18.972;2023-05-07T04:54:28;43.99;34.41;54.26;;
77135;Laerm;48586;50.122;18.972;2023-05-07T04:56:32;42.89;34.01;56.52;;
77135;Laerm;48586;50.122;18.972;2023-05-07T04:58:38;35.95;34.01;46.90;;
77135;Laerm;48586;50.122;18.972;2023-05-07T05:00:45;40.07;34.40;50.15;;
77135;Laerm;48586;50.122;18.972;2023-05-07T05:02:50;39.75;34.24;49.83;;
77135;Laerm;48586;50.122;18.972;2023-05-07T05:04:58;41.60;34.52;50.20;;
77135;Laerm;48586;50.122;18.972;2023-05-07T05:07:03;38.66;33.97;58.22;;
77135;Laerm;48586;50.122;18.972;2023-05-07T05:09:07;41.36;34.12;57.34;;
77135;Laerm;48586;50.122;18.972;2023-05-07T05:11:15;47.89;34.11;59.62;;
77135;Laerm;48586;50.122;18.972;2023-05-07T05:13:19;40.79;34.40;53.10;;
77135;Laerm;48586;50.122;18.972;2023-05-07T05:15:23;66.36;34.45;82.82;;
77135;Laerm;48586;50.122;18.972;2023-05-07T05:17:31;73.38;34.56;84.04;;
77135;Laerm;48586;50.122;18.972;2023-05-07T05:19:37;41.94;35.17;51.61;;
77135;Laerm;48586;50.122;18.972;2023-05-07T05:21:41;37.54;34.42;44.71;;
77135;Laerm;48586;50.122;18.972;2023-05-07T05:23:47;42.71;34.80;55.08;;
77135;Laerm;48586;50.122;18.972;2023-05-07T05:25:56;42.48;34.63;51.45;;
77135;Laerm;48586;50.122;18.972;2023-05-07T05:28:04;40.14;34.31;53.16;;
77135;Laerm;48586;50.122;18.972;2023-05-07T05:30:11;39.56;34.11;50.81;;
77135;Laerm;48586;50.122;18.972;2023-05-07T05:32:19;42.12;34.89;51.89;;
77135;Laerm;48586;50.122;18.972;2023-05-07T05:34:26;36.53;34.28;62.30;;
77135;Laerm;48586;50.122;18.972;2023-05-07T05:36:31;42.25;34.40;52.95;;
77135;Laerm;48586;50.122;18.972;2023-05-07T05:38:36;39.92;34.27;53.33;;
77135;Laerm;48586;50.122;18.972;2023-05-07T05:40:41;42.28;34.21;53.89;;
77135;Laerm;48586;50.122;18.972;2023-05-07T05:42:46;44.41;34.56;56.72;;
77135;Laerm;48586;50.122;18.972;2023-05-07T05:44:51;45.66;34.16;68.17;;
77135;Laerm;48586;50.122;18.972;2023-05-07T05:46:56;43.40;34.46;54.11;;
77135;Laerm;48586;50.122;18.972;2023-05-07T05:49:02;41.91;34.46;53.36;;
77135;Laerm;48586;50.122;18.972;2023-05-07T05:51:09;36.44;34.52;43.73;;
77135;Laerm;48586;50.122;18.972;2023-05-07T05:53:13;45.14;34.59;60.36;;
77135;Laerm;48586;50.122;18.972;2023-05-07T05:55:20;42.07;34.67;50.63;;
77135;Laerm;48586;50.122;18.972;2023-05-07T05:57:24;36.49;34.56;46.85;;
77135;Laerm;48586;50.122;18.972;2023-05-07T05:59:28;40.80;34.51;51.59;;
77135;Laerm;48586;50.122;18.972;2023-05-07T06:01:33;45.71;34.76;57.04;;
77135;Laerm;48586;50.122;18.972;2023-05-07T06:03:39;39.48;34.55;47.76;;
77135;Laerm;48586;50.122;18.972;2023-05-07T06:05:48;41.64;34.45;52.59;;
77135;Laerm;48586;50.122;18.972;2023-05-07T06:07:58;37.15;34.71;44.85;;
77135;Laerm;48586;50.122;18.972;2023-05-07T06:10:08;45.20;34.81;60.18;;
77135;Laerm;48586;50.122;18.972;2023-05-07T06:12:12;44.53;35.16;53.95;;
77135;Laerm;48586;50.122;18.972;2023-05-07T06:14:17;43.03;34.75;54.34;;
77135;Laerm;48586;50.122;18.972;2023-05-07T06:16:21;44.01;36.54;52.51;;
77135;Laerm;48586;50.122;18.972;2023-05-07T06:18:26;43.10;34.88;55.92;;
77135;Laerm;48586;50.122;18.972;2023-05-07T06:20:31;42.89;35.49;55.05;;
77135;Laerm;48586;50.122;18.972;2023-05-07T06:22:38;43.49;35.65;62.61;;
77135;Laerm;48586;50.122;18.972;2023-05-07T06:24:47;41.04;35.38;51.40;;
77135;Laerm;48586;50.122;18.972;2023-05-07T06:26:52;44.45;35.72;53.72;;
77135;Laerm;48586;50.122;18.972;2023-05-07T06:28:56;46.41;37.19;60.49;;
77135;Laerm;48586;50.122;18.972;2023-05-07T06:31:12;45.91;36.35;60.19;;
77135;Laerm;48586;50.122;18.972;2023-05-07T06:33:20;44.66;36.66;55.43;;
77135;Laerm;48586;50.122;18.972;2023-05-07T06:35:24;39.50;34.76;47.97;;
77135;Laerm;48586;50.122;18.972;2023-05-07T06:37:28;44.29;35.37;52.02;;
77135;Laerm;48586;50.122;18.972;2023-05-07T06:39:40;45.20;34.92;59.03;;
77135;Laerm;48586;50.122;18.972;2023-05-07T06:41:47;46.50;36.07;53.98;;
77135;Laerm;48586;50.122;18.972;2023-05-07T06:43:59;47.77;37.40;58.87;;
77135;Laerm;48586;50.122;18.972;2023-05-07T06:46:17;47.08;34.56;57.71;;
77135;Laerm;48586;50.122;18.972;2023-05-07T06:48:22;43.87;37.01;50.98;;
77135;Laerm;48586;50.122;18.972;2023-05-07T06:50:37;45.72;34.66;54.75;;
77135;Laerm;48586;50.122;18.972;2023-05-07T06:52:43;43.59;36.63;52.05;;
77135;Laerm;48586;50.122;18.972;2023-05-07T06:54:48;47.51;36.87;55.88;;
77135;Laerm;48586;50.122;18.972;2023-05-07T06:56:58;47.84;37.03;59.14;;
77135;Laerm;48586;50.122;18.972;2023-05-07T06:59:05;47.87;35.74;56.19;;
77135;Laerm;48586;50.122;18.972;2023-05-07T07:01:15;48.02;39.79;56.83;;
77135;Laerm;48586;50.122;18.972;2023-05-07T07:03:20;46.28;36.72;56.23;;
77135;Laerm;48586;50.122;18.972;2023-05-07T07:05:25;46.53;37.27;58.06;;
77135;Laerm;48586;50.122;18.972;2023-05-07T07:07:30;42.72;35.15;59.78;;
77135;Laerm;48586;50.122;18.972;2023-05-07T07:09:38;43.17;35.41;59.81;;
77135;Laerm;48586;50.122;18.972;2023-05-07T07:11:45;45.63;35.64;59.94;;
77135;Laerm;48586;50.122;18.972;2023-05-07T07:13:52;42.87;35.44;51.39;;
77135;Laerm;48586;50.122;18.972;2023-05-07T07:15:58;71.56;37.25;84.72;;
77135;Laerm;48586;50.122;18.972;2023-05-07T07:18:04;72.79;39.68;83.55;;
77135;Laerm;48586;50.122;18.972;2023-05-07T07:20:11;44.85;35.38;62.28;;
77135;Laerm;48586;50.122;18.972;2023-05-07T07:22:16;41.91;35.36;53.12;;
77135;Laerm;48586;50.122;18.972;2023-05-07T07:24:22;48.17;35.64;59.62;;
77135;Laerm;48586;50.122;18.972;2023-05-07T07:26:30;44.04;35.06;54.01;;
77135;Laerm;48586;50.122;18.972;2023-05-07T07:28:34;42.23;35.99;59.11;;
77135;Laerm;48586;50.122;18.972;2023-05-07T07:30:42;46.86;35.61;57.48;;
77135;Laerm;48586;50.122;18.972;2023-05-07T07:32:46;44.96;35.80;53.69;;
77135;Laerm;48586;50.122;18.972;2023-05-07T07:34:50;45.30;35.51;54.72;;
77135;Laerm;48586;50.122;18.972;2023-05-07T07:36:55;45.31;34.72;65.93;;
77135;Laerm;48586;50.122;18.972;2023-05-07T07:39:01;42.05;35.19;52.81;;
77135;Laerm;48586;50.122;18.972;2023-05-07T07:41:08;43.77;35.64;58.82;;
77135;Laerm;48586;50.122;18.972;2023-05-07T07:43:13;45.01;36.52;55.95;;
77135;Laerm;48586;50.122;18.972;2023-05-07T07:45:18;46.74;38.79;54.86;;
77135;Laerm;48586;50.122;18.972;2023-05-07T07:47:27;46.67;36.31;66.61;;
77135;Laerm;48586;50.122;18.972;2023-05-07T07:49:32;45.61;38.71;57.48;;
77135;Laerm;48586;50.122;18.972;2023-05-07T07:51:39;47.02;36.32;64.31;;
77135;Laerm;48586;50.122;18.972;2023-05-07T07:53:46;46.53;35.23;60.13;;
77135;Laerm;48586;50.122;18.972;2023-05-07T07:55:52;46.58;36.14;56.89;;
77135;Laerm;48586;50.122;18.972;2023-05-07T07:57:59;40.83;35.15;59.88;;
77135;Laerm;48586;50.122;18.972;2023-05-07T08:00:06;43.92;35.60;52.83;;
77135;Laerm;48586;50.122;18.972;2023-05-07T08:02:19;42.94;35.11;52.82;;
77135;Laerm;48586;50.122;18.972;2023-05-07T08:04:28;43.64;36.23;54.39;;
77135;Laerm;48586;50.122;18.972;2023-05-07T08:06:37;45.62;35.23;56.46;;
77135;Laerm;48586;50.122;18.972;2023-05-07T08:08:45;45.78;36.60;55.75;;
77135;Laerm;48586;50.122;18.972;2023-05-07T08:10:49;42.85;35.39;53.55;;
77135;Laerm;48586;50.122;18.972;2023-05-07T08:13:01;46.77;35.34;56.39;;
77135;Laerm;48586;50.122;18.972;2023-05-07T08:15:09;43.16;35.73;55.48;;
77135;Laerm;48586;50.122;18.972;2023-05-07T08:17:14;43.45;35.78;59.04;;
77135;Laerm;48586;50.122;18.972;2023-05-07T08:19:22;46.33;35.90;66.40;;
77135;Laerm;48586;50.122;18.972;2023-05-07T08:21:30;48.57;36.16;62.88;;
77135;Laerm;48586;50.122;18.972;2023-05-07T08:23:34;45.44;34.67;59.36;;
77135;Laerm;48586;50.122;18.972;2023-05-07T08:25:40;44.24;34.86;57.63;;
77135;Laerm;48586;50.122;18.972;2023-05-07T08:27:46;46.70;35.42;55.86;;
77135;Laerm;48586;50.122;18.972;2023-05-07T08:29:51;46.69;39.65;54.89;;
77135;Laerm;48586;50.122;18.972;2023-05-07T08:31:58;48.18;41.74;55.48;;
77135;Laerm;48586;50.122;18.972;2023-05-07T08:34:04;45.44;37.34;53.64;;
77135;Laerm;48586;50.122;18.972;2023-05-07T08:36:11;49.13;38.34;58.52;;
77135;Laerm;48586;50.122;18.972;2023-05-07T08:38:19;45.14;36.66;54.88;;
77135;Laerm;48586;50.122;18.972;2023-05-07T08:40:26;46.34;36.18;53.69;;
77135;Laerm;48586;50.122;18.972;2023-05-07T08:42:36;45.29;35.36;54.38;;
77135;Laerm;48586;50.122;18.972;2023-05-07T08:44:46;46.19;35.33;54.91;;
77135;Laerm;48586;50.122;18.972;2023-05-07T08:46:57;75.39;39.73;83.43;;
77135;Laerm;48586;50.122;18.972;2023-05-07T08:49:02;66.17;37.28;84.42;;
77135;Laerm;48586;50.122;18.972;2023-05-07T08:51:12;47.37;37.88;54.27;;
77135;Laerm;48586;50.122;18.972;2023-05-07T08:53:21;45.86;36.84;58.54;;
77135;Laerm;48586;50.122;18.972;2023-05-07T08:55:29;45.78;35.95;58.06;;
77135;Laerm;48586;50.122;18.972;2023-05-07T08:57:35;42.84;35.89;55.76;;
77135;Laerm;48586;50.122;18.972;2023-05-07T08:59:41;47.47;35.81;55.61;;
77135;Laerm;48586;50.122;18.972;2023-05-07T09:01:47;45.84;36.46;52.90;;
77135;Laerm;48586;50.122;18.972;2023-05-07T09:03:53;47.14;35.65;56.14;;
77135;Laerm;48586;50.122;18.972;2023-05-07T09:05:59;46.66;35.26;63.00;;
77135;Laerm;48586;50.122;18.972;2023-05-07T09:08:07;46.00;36.13;59.69;;
77135;Laerm;48586;50.122;18.972;2023-05-07T09:10:16;47.02;36.89;54.86;;
77135;Laerm;48586;50.122;18.972;2023-05-07T09:12:23;46.41;36.36;55.79;;
77135;Laerm;48586;50.122;18.972;2023-05-07T09:14:28;44.28;37.01;57.57;;
77135;Laerm;48586;50.122;18.972;2023-05-07T09:16:32;48.36;37.30;61.89;;
77135;Laerm;48586;50.122;18.972;2023-05-07T09:18:41;44.19;35.35;54.14;;
77135;Laerm;48586;50.122;18.972;2023-05-07T09:20:47;44.90;35.95;52.90;;
77135;Laerm;48586;50.122;18.972;2023-05-07T09:22:56;42.26;35.59;52.40;;
77135;Laerm;48586;50.122;18.972;2023-05-07T09:25:01;44.35;37.08;54.56;;
77135;Laerm;48586;50.122;18.972;2023-05-07T09:27:08;43.91;35.42;52.16;;
77135;Laerm;48586;50.122;18.972;2023-05-07T09:29:16;47.17;35.40;56.02;;
77135;Laerm;48586;50.122;18.972;2023-05-07T09:31:22;48.09;37.18;62.40;;
77135;Laerm;48586;50.122;18.972;2023-05-07T09:33:29;50.57;37.59;68.51;;
77135;Laerm;48586;50.122;18.972;2023-05-07T09:35:38;46.78;36.56;55.30;;
77135;Laerm;48586;50.122;18.972;2023-05-07T09:37:48;45.95;37.19;58.95;;
77135;Laerm;48586;50.122;18.972;2023-05-07T09:39:54;46.56;36.74;57.06;;
77135;Laerm;48586;50.122;18.972;2023-05-07T09:42:02;46.53;36.14;54.33;;
77135;Laerm;48586;50.122;18.972;2023-05-07T09:44:15;47.22;36.29;58.33;;
77135;Laerm;48586;50.122;18.972;2023-05-07T09:46:30;49.19;38.55;62.68;;
77135;Laerm;48586;50.122;18.972;2023-05-07T09:48:43;47.83;38.66;55.69;;
77135;Laerm;48586;50.122;18.972;2023-05-07T09:50:55;47.97;36.54;65.30;;
77135;Laerm;48586;50.122;18.972;2023-05-07T09:53:07;45.33;37.82;54.38;;
77135;Laerm;48586;50.122;18.972;2023-05-07T09:55:15;47.58;39.35;58.02;;
77135;Laerm;48586;50.122;18.972;2023-05-07T09:57:24;48.98;39.32;57.95;;
77135;Laerm;48586;50.122;18.972;2023-05-07T09:59:43;49.09;40.87;63.15;;
77135;Laerm;48586;50.122;18.972;2023-05-07T10:01:57;68.93;43.11;79.92;;
77135;Laerm;48586;50.122;18.972;2023-05-07T10:04:04;45.92;37.90;54.61;;
77135;Laerm;48586;50.122;18.972;2023-05-07T10:06:12;47.99;36.80;57.06;;
77135;Laerm;48586;50.122;18.972;2023-05-07T10:08:18;45.30;35.89;54.22;;
77135;Laerm;48586;50.122;18.972;2023-05-07T10:10:29;47.59;37.03;57.09;;
77135;Laerm;48586;50.122;18.972;2023-05-07T10:12:36;47.23;36.40;56.33;;
77135;Laerm;48586;50.122;18.972;2023-05-07T10:14:54;45.02;36.53;54.12;;
77135;Laerm;48586;50.122;18.972;2023-05-07T10:17:02;50.63;37.88;65.21;;
77135;Laerm;48586;50.122;18.972;2023-05-07T10:19:10;46.72;37.49;60.19;;
77135;Laerm;48586;50.122;18.972;2023-05-07T10:21:20;47.95;38.72;56.11;;
77135;Laerm;48586;50.122;18.972;2023-05-07T10:23:32;44.83;35.35;54.22;;
77135;Laerm;48586;50.122;18.972;2023-05-07T10:25:38;44.46;35.72;53.21;;
77135;Laerm;48586;50.122;18.972;2023-05-07T10:27:56;48.00;36.85;55.59;;
77135;Laerm;48586;50.122;18.972;2023-05-07T10:30:20;47.43;35.99;59.81;;
77135;Laerm;48586;50.122;18.972;2023-05-07T10:32:40;47.51;36.86;57.96;;
77135;Laerm;48586;50.122;18.972;2023-05-07T10:34:55;47.22;35.98;55.97;;
77135;Laerm;48586;50.122;18.972;2023-05-07T10:37:02;48.39;37.22;64.09;;
77135;Laerm;48586;50.122;18.972;2023-05-07T10:39:10;43.25;35.77;66.00;;
77135;Laerm;48586;50.122;18.972;2023-05-07T10:41:15;49.81;37.85;60.68;;
77135;Laerm;48586;50.122;18.972;2023-05-07T10:43:23;47.87;36.31;72.03;;
77135;Laerm;48586;50.122;18.972;2023-05-07T10:45:35;55.25;36.76;71.02;;
77135;Laerm;48586;50.122;18.972;2023-05-07T10:48:06;54.84;38.48;70.38;;
77135;Laerm;48586;50.122;18.972;2023-05-07T10:50:21;46.51;35.96;55.05;;
77135;Laerm;48586;50.122;18.972;2023-05-07T10:52:32;46.41;36.86;56.01;;
77135;Laerm;48586;50.122;18.972;2023-05-07T10:55:20;46.55;36.59;56.31;;
77135;Laerm;48586;50.122;18.972;2023-05-07T10:57:44;45.86;35.69;56.33;;
77135;Laerm;48586;50.122;18.972;2023-05-07T11:00:01;49.28;37.60;58.69;;
77135;Laerm;48586;50.122;18.972;2023-05-07T11:02:11;48.50;38.18;56.08;;
77135;Laerm;48586;50.122;18.972;2023-05-07T11:04:30;47.43;37.43;55.35;;
77135;Laerm;48586;50.122;18.972;2023-05-07T11:07:29;48.86;38.03;65.44;;
77135;Laerm;48586;50.122;18.972;2023-05-07T11:10:03;47.48;37.71;59.43;;
77135;Laerm;48586;50.122;18.972;2023-05-07T11:12:18;50.73;37.18;63.18;;
77135;Laerm;48586;50.122;18.972;2023-05-07T11:14:57;50.19;38.33;65.31;;
77135;Laerm;48586;50.122;18.972;2023-05-07T11:17:11;46.95;36.63;54.86;;
77135;Laerm;48586;50.122;18.972;2023-05-07T11:19:48;48.00;36.87;61.05;;
77135;Laerm;48586;50.122;18.972;2023-05-07T11:22:37;47.95;36.73;56.65;;
77135;Laerm;48586;50.122;18.972;2023-05-07T11:24:47;44.96;37.09;52.00;;
77135;Laerm;48586;50.122;18.972;2023-05-07T11:26:51;46.55;37.31;56.67;;
77135;Laerm;48586;50.122;18.972;2023-05-07T11:28:58;47.99;36.69;55.76;;
77135;Laerm;48586;50.122;18.972;2023-05-07T11:31:05;46.70;36.82;62.54;;
77135;Laerm;48586;50.122;18.972;2023-05-07T11:33:18;45.30;36.36;57.61;;
77135;Laerm;48586;50.122;18.972;2023-05-07T11:35:26;46.35;37.04;60.81;;
77135;Laerm;48586;50.122;18.972;2023-05-07T11:40:50;46.56;36.09;56.99;;
77135;Laerm;48586;50.122;18.972;2023-05-07T11:42:56;49.65;38.93;63.19;;
77135;Laerm;48586;50.122;18.972;2023-05-07T11:45:02;46.96;37.40;62.11;;
77135;Laerm;48586;50.122;18.972;2023-05-07T11:47:07;46.70;37.82;62.62;;
77135;Laerm;48586;50.122;18.972;2023-05-07T11:49:16;47.42;38.50;65.16;;